Time;durP1;ratioP1;P1;durP2;ratioP2;P2;SDS_P1;SDS_P2;PMS_P1;PMS_P2;Temp;Humidity;BMP_temperature;BMP_pressure;BME280_temperature;BME280_humidity;BME280_pressure;Samples;Min_cycle;Max_cycle;Signal;HPM_P1;HPM_P2
2021/05/06 00:14:34;;;;;;;3.35;1.05;;;5.70;75.70;;;;;;5055795;28;20492;-79
2021/05/06 00:33:05;;;;;;;5.63;1.25;;;6.10;75.10;;;;;;5052854;28;20017;-78
2021/05/06 00:35:34;;;;;;;6.45;1.50;;;6.10;75.20;;;;;;5052840;28;20036;-79
2021/05/06 00:46:42;;;;;;;3.65;1.98;;;6.20;75.00;;;;;;5052659;28;20028;-79
2021/05/06 00:57:22;;;;;;;4.53;1.75;;;6.30;74.30;;;;;;5052731;28;20349;-77
2021/05/06 01:02:47;;;;;;;3.35;1.60;;;6.30;74.60;;;;;;5053384;28;20032;-76
2021/05/06 01:12:50;;;;;;;2.45;1.38;;;6.30;75.40;;;;;;5064202;28;20021;-78
2021/05/06 01:15:16;;;;;;;4.57;1.45;;;6.30;75.60;;;;;;5056853;28;20033;-78
2021/05/06 01:17:42;;;;;;;4.95;2.28;;;6.30;75.70;;;;;;5056336;28;20021;-78
2021/05/06 01:20:09;;;;;;;4.00;1.67;;;6.30;75.60;;;;;;5056463;28;20032;-78
2021/05/06 01:22:35;;;;;;;6.88;1.95;;;6.30;75.70;;;;;;5056317;28;20500;-78
2021/05/06 01:25:01;;;;;;;6.95;2.38;;;6.30;75.60;;;;;;5056938;28;20029;-78
2021/05/06 01:27:58;;;;;;;5.43;2.00;;;6.30;75.90;;;;;;5061925;28;20029;-79
2021/05/06 01:32:55;;;;;;;6.38;1.50;;;6.20;76.50;;;;;;5056990;28;20115;-78
2021/05/06 01:38:27;;;;;;;4.25;1.90;;;6.20;76.50;;;;;;5056037;28;20060;-78
2021/05/06 01:43:44;;;;;;;8.40;2.55;;;6.20;76.30;;;;;;5056157;28;20087;-78
2021/05/06 01:57:30;;;;;;;5.35;2.63;;;6.20;77.00;;;;;;5055678;28;20021;-78
2021/05/06 02:02:03;;;;;;;7.55;3.22;;;6.20;77.20;;;;;;5055604;28;20025;-77
2021/05/06 02:04:28;;;;;;;7.25;3.30;;;6.20;77.40;;;;;;5055623;28;20021;-79
2021/05/06 02:06:54;;;;;;;5.38;2.60;;;6.20;77.40;;;;;;5055434;28;20051;-78
2021/05/06 02:09:20;;;;;;;8.63;3.08;;;6.10;77.40;;;;;;5055323;28;20133;-78
2021/05/06 02:11:45;;;;;;;5.78;2.50;;;6.10;77.60;;;;;;5055166;28;20024;-78
2021/05/06 02:14:11;;;;;;;9.50;3.60;;;6.10;77.50;;;;;;5054902;28;20124;-79
2021/05/06 02:16:38;;;;;;;10.40;2.83;;;6.10;77.20;;;;;;5055164;28;20017;-78
2021/05/06 02:19:06;;;;;;;10.55;3.90;;;6.10;77.20;;;;;;5055036;28;20031;-79
2021/05/06 02:21:31;;;;;;;13.70;3.65;;;6.10;77.10;;;;;;5055213;28;20517;-79
2021/05/06 02:23:58;;;;;;;8.43;3.08;;;6.00;76.90;;;;;;5055170;28;20036;-78
2021/05/06 02:26:23;;;;;;;7.75;3.03;;;6.00;76.90;;;;;;5055289;28;20032;-78
2021/05/06 02:28:50;;;;;;;8.38;3.58;;;6.00;77.00;;;;;;5054863;28;20364;-78
2021/05/06 02:31:15;;;;;;;9.40;3.28;;;6.10;77.10;;;;;;5055072;28;20461;-78
2021/05/06 02:33:42;;;;;;;14.27;3.97;;;6.10;77.10;;;;;;5055143;28;20032;-78
2021/05/06 02:36:08;;;;;;;11.05;4.20;;;6.10;76.70;;;;;;5054870;28;20099;-77
2021/05/06 02:38:34;;;;;;;12.75;4.03;;;6.10;76.20;;;;;;5054883;28;20017;-78
2021/05/06 02:41:00;;;;;;;12.45;3.85;;;6.10;77.00;;;;;;5054587;28;20049;-78
2021/05/06 02:43:25;;;;;;;7.95;2.05;;;6.10;76.20;;;;;;5054834;28;20513;-78
2021/05/06 02:45:51;;;;;;;4.80;1.60;;;6.20;73.90;;;;;;5054680;28;20060;-78
2021/05/06 02:48:16;;;;;;;9.95;1.65;;;6.20;72.40;;;;;;5054661;28;20029;-77
2021/05/06 02:50:46;;;;;;;5.32;1.50;;;6.10;71.60;;;;;;5054653;28;20428;-77
2021/05/06 02:53:16;;;;;;;7.43;1.98;;;6.10;71.20;;;;;;5054854;28;20470;-79
2021/05/06 02:55:55;;;;;;;5.45;1.45;;;6.10;71.20;;;;;;5053549;28;20025;-78
2021/05/06 03:03:51;;;;;;;7.78;1.55;;;6.20;70.60;;;;;;5054507;28;20086;-78
2021/05/06 03:06:23;;;;;;;8.48;2.00;;;6.20;70.30;;;;;;5054488;28;20470;-78
2021/05/06 03:08:55;;;;;;;9.60;2.05;;;6.20;70.00;;;;;;5054328;28;20123;-78
2021/05/06 03:14:11;;;;;;;6.38;1.58;;;6.30;69.80;;;;;;5054086;28;20025;-79
2021/05/06 03:24:47;;;;;;;8.52;1.75;;;6.30;69.70;;;;;;5053743;28;20079;-77
2021/05/06 03:27:15;;;;;;;8.45;1.90;;;6.40;69.50;;;;;;5053341;28;20023;-77
2021/05/06 03:29:51;;;;;;;7.45;1.52;;;6.40;68.80;;;;;;5053757;28;20025;-77
2021/05/06 04:13:21;;;;;;;7.00;1.88;;;6.70;65.00;;;;;;5053148;28;20091;-76
2021/05/06 04:16:10;;;;;;;12.05;1.80;;;6.80;64.90;;;;;;5053993;28;20025;-76
2021/05/06 04:18:34;;;;;;;10.65;2.10;;;6.80;64.50;;;;;;5052938;28;20100;-77
2021/05/06 04:26:35;;;;;;;7.32;1.80;;;6.80;63.80;;;;;;5052825;28;20083;-77
2021/05/06 04:37:13;;;;;;;5.22;2.20;;;6.90;63.60;;;;;;5052651;28;20032;-78
2021/05/06 04:39:47;;;;;;;5.55;2.03;;;6.80;63.60;;;;;;5052621;28;20041;-77
2021/05/06 04:53:35;;;;;;;7.90;1.90;;;7.00;63.00;;;;;;5052709;28;20394;-78
2021/05/06 05:04:30;;;;;;;11.52;2.00;;;7.10;62.40;;;;;;5052814;28;20032;-77
2021/05/06 05:10:09;;;;;;;7.57;1.63;;;7.10;62.00;;;;;;5055136;28;20094;-79
2021/05/06 05:21:01;;;;;;;7.95;2.15;;;7.20;63.50;;;;;;5052223;28;20028;-78
2021/05/06 05:23:37;;;;;;;12.00;2.40;;;7.20;63.60;;;;;;5051759;28;20474;-78
2021/05/06 05:26:06;;;;;;;8.55;2.00;;;7.20;64.40;;;;;;5051850;28;20029;-78
2021/05/06 05:28:31;;;;;;;8.90;2.13;;;7.20;63.90;;;;;;5050800;28;20520;-78
2021/05/06 05:30:57;;;;;;;13.18;2.47;;;7.20;64.00;;;;;;5052135;28;20032;-78
2021/05/06 05:33:24;;;;;;;11.43;2.50;;;7.20;63.90;;;;;;5052066;28;20029;-77
2021/05/06 05:36:09;;;;;;;7.45;2.05;;;7.30;64.10;;;;;;5051782;28;20108;-77
2021/05/06 05:38:47;;;;;;;12.07;2.45;;;7.30;63.80;;;;;;5052192;28;20040;-78
2021/05/06 05:54:53;;;;;;;9.13;2.38;;;7.70;62.30;;;;;;5055598;28;20036;-77
2021/05/06 05:57:19;;;;;;;9.20;2.08;;;7.60;62.80;;;;;;5055546;28;20025;-77
2021/05/06 05:59:44;;;;;;;10.93;2.50;;;7.60;62.60;;;;;;5055439;28;20025;-78
2021/05/06 06:02:10;;;;;;;8.88;1.73;;;7.70;62.90;;;;;;5054175;28;20112;-78
2021/05/06 06:04:36;;;;;;;9.07;1.85;;;7.70;62.70;;;;;;5055313;28;20029;-78
2021/05/06 06:07:01;;;;;;;9.57;1.80;;;7.80;62.20;;;;;;5055362;28;20025;-77
2021/05/06 06:09:27;;;;;;;6.88;1.70;;;7.90;62.10;;;;;;5055063;28;20036;-77
2021/05/06 06:11:52;;;;;;;8.88;1.70;;;8.00;61.50;;;;;;5055567;28;20021;-78
2021/05/06 06:14:25;;;;;;;11.68;1.92;;;8.00;60.90;;;;;;5055362;28;20063;-79
2021/05/06 06:16:50;;;;;;;9.55;1.35;;;8.10;61.10;;;;;;5054878;28;20021;-79
2021/05/06 06:19:18;;;;;;;13.30;2.05;;;8.10;60.70;;;;;;5055014;28;20054;-76
2021/05/06 06:21:49;;;;;;;7.15;1.67;;;8.10;61.20;;;;;;5054880;28;20029;-78
2021/05/06 06:24:14;;;;;;;12.65;1.85;;;8.10;61.70;;;;;;5054984;28;20031;-76
2021/05/06 06:26:40;;;;;;;8.07;1.60;;;8.10;61.70;;;;;;5054920;28;20021;-78
2021/05/06 06:29:12;;;;;;;19.38;2.85;;;8.10;61.20;;;;;;5054675;28;20029;-78
2021/05/06 06:31:43;;;;;;;9.63;1.77;;;8.10;61.50;;;;;;5054762;28;20025;-77
2021/05/06 06:34:09;;;;;;;6.13;1.70;;;8.20;61.30;;;;;;5054613;28;20033;-77
2021/05/06 06:36:35;;;;;;;7.85;1.35;;;8.20;62.00;;;;;;5054652;28;20100;-77
2021/05/06 06:39:02;;;;;;;9.50;1.85;;;8.40;61.20;;;;;;5054737;28;20028;-78
2021/05/06 06:41:29;;;;;;;7.97;1.95;;;8.40;61.20;;;;;;5054579;28;20140;-79
2021/05/06 06:43:58;;;;;;;7.43;1.80;;;8.50;61.10;;;;;;5054208;28;20457;-77
2021/05/06 06:46:24;;;;;;;4.72;1.95;;;8.50;60.60;;;;;;5054406;28;20025;-78
2021/05/06 06:48:49;;;;;;;7.50;2.08;;;8.70;61.10;;;;;;5054433;28;20060;-78
2021/05/06 06:51:16;;;;;;;7.68;2.03;;;8.80;61.00;;;;;;5054824;28;20445;-79
2021/05/06 06:53:42;;;;;;;11.02;2.60;;;8.80;61.60;;;;;;5054550;28;20052;-78
2021/05/06 06:56:08;;;;;;;5.80;2.03;;;8.90;61.40;;;;;;5054510;28;20029;-78
2021/05/06 06:58:33;;;;;;;6.40;1.88;;;8.90;61.30;;;;;;5054431;28;20470;-78
2021/05/06 07:01:00;;;;;;;9.55;2.08;;;8.90;61.40;;;;;;5054324;28;20366;-77
2021/05/06 07:03:26;;;;;;;10.50;1.77;;;9.00;61.40;;;;;;5054248;28;20040;-77
2021/05/06 07:05:52;;;;;;;8.93;2.30;;;9.00;60.50;;;;;;5053421;28;20473;-80
2021/05/06 07:08:31;;;;;;;12.25;2.47;;;8.90;60.30;;;;;;5053959;28;20373;-78
2021/05/06 07:10:59;;;;;;;8.13;1.90;;;8.80;60.70;;;;;;5054136;28;20095;-77
2021/05/06 07:13:25;;;;;;;8.10;1.98;;;8.80;61.00;;;;;;5053735;28;20025;-77
2021/05/06 07:15:53;;;;;;;8.32;1.80;;;8.90;61.50;;;;;;5053940;28;20029;-76
2021/05/06 07:18:19;;;;;;;4.03;1.45;;;8.90;61.30;;;;;;5053936;28;20024;-77
2021/05/06 07:20:46;;;;;;;10.15;2.10;;;9.00;61.20;;;;;;5053880;28;20026;-77
2021/05/06 07:23:12;;;;;;;7.35;2.55;;;9.00;61.10;;;;;;5053942;28;20462;-81
2021/05/06 07:25:38;;;;;;;10.65;2.08;;;9.00;60.40;;;;;;5053936;28;20029;-78
2021/05/06 07:28:15;;;;;;;7.75;2.30;;;9.10;60.30;;;;;;5053922;28;20485;-79
2021/05/06 07:30:42;;;;;;;7.40;1.60;;;9.20;60.00;;;;;;5052306;28;20029;-79
2021/05/06 07:33:10;;;;;;;11.68;2.60;;;9.20;59.90;;;;;;5053826;28;20481;-78
2021/05/06 07:35:36;;;;;;;9.63;2.33;;;9.30;59.80;;;;;;5053692;28;20111;-79
2021/05/06 07:38:02;;;;;;;11.43;1.63;;;9.30;60.30;;;;;;5053242;28;20025;-79
2021/05/06 07:40:28;;;;;;;16.58;2.55;;;9.40;59.50;;;;;;5053156;28;20048;-78
2021/05/06 07:42:53;;;;;;;5.32;2.08;;;9.30;59.00;;;;;;5053421;28;20043;-78
2021/05/06 07:45:20;;;;;;;5.78;1.55;;;9.30;59.30;;;;;;5053813;28;20032;-79
2021/05/06 07:47:45;;;;;;;6.97;1.80;;;9.30;57.90;;;;;;5053365;28;20029;-77
2021/05/06 07:50:12;;;;;;;10.25;2.65;;;9.40;57.90;;;;;;5053245;28;20110;-78
2021/05/06 07:52:40;;;;;;;5.97;1.75;;;9.40;58.20;;;;;;5052203;28;20115;-77
2021/05/06 07:55:07;;;;;;;6.07;1.60;;;9.20;60.20;;;;;;5053101;28;20025;-75
2021/05/06 07:57:32;;;;;;;11.13;2.33;;;9.10;61.40;;;;;;5051660;28;20029;-76
2021/05/06 07:59:58;;;;;;;7.70;1.73;;;9.00;64.60;;;;;;5053273;28;20017;-75
2021/05/06 08:02:24;;;;;;;6.40;1.90;;;9.10;64.80;;;;;;5053458;28;20025;-77
2021/05/06 08:04:49;;;;;;;7.90;2.35;;;9.20;64.60;;;;;;5053025;28;20028;-76
2021/05/06 08:07:15;;;;;;;6.38;1.98;;;9.20;65.30;;;;;;5052672;28;20029;-74
2021/05/06 08:09:41;;;;;;;7.57;2.17;;;9.20;65.30;;;;;;5052848;28;20107;-74
2021/05/06 08:12:07;;;;;;;5.47;1.48;;;9.20;65.60;;;;;;5052508;28;20025;-73
2021/05/06 08:14:32;;;;;;;6.47;1.67;;;9.00;65.70;;;;;;5052900;28;20025;-74
2021/05/06 08:16:58;;;;;;;4.75;1.85;;;9.10;65.50;;;;;;5052793;28;20064;-74
2021/05/06 08:19:24;;;;;;;7.20;1.95;;;9.30;66.90;;;;;;5052915;28;20021;-75
2021/05/06 08:21:49;;;;;;;2.15;1.58;;;9.30;65.70;;;;;;5052629;28;20028;-75
2021/05/06 08:24:15;;;;;;;4.82;1.65;;;9.40;65.00;;;;;;5052484;28;20512;-79
2021/05/06 08:26:41;;;;;;;6.18;1.50;;;9.10;65.10;;;;;;5052671;28;20036;-79
2021/05/06 08:29:07;;;;;;;5.35;1.67;;;9.00;66.00;;;;;;5052561;28;20381;-74
2021/05/06 08:31:33;;;;;;;11.98;1.90;;;8.90;66.60;;;;;;5052604;28;20017;-75
2021/05/06 08:33:59;;;;;;;6.13;1.80;;;8.90;67.90;;;;;;5052494;28;20151;-81
2021/05/06 08:36:24;;;;;;;10.20;1.83;;;8.90;68.20;;;;;;5052654;28;20442;-79
2021/05/06 08:38:51;;;;;;;7.97;1.60;;;8.70;68.50;;;;;;5052555;28;20494;-80
2021/05/06 08:41:17;;;;;;;7.50;1.85;;;8.80;68.40;;;;;;5051045;28;20049;-79
2021/05/06 08:43:47;;;;;;;7.95;1.90;;;8.80;69.00;;;;;;5052311;28;20032;-79
2021/05/06 08:46:15;;;;;;;5.47;1.73;;;8.80;68.30;;;;;;5052629;28;20025;-79
2021/05/06 08:48:41;;;;;;;3.15;1.45;;;8.90;68.20;;;;;;5052411;28;20025;-80
2021/05/06 08:51:07;;;;;;;6.88;2.10;;;8.90;67.90;;;;;;5052419;28;20373;-79
2021/05/06 08:53:33;;;;;;;4.78;1.90;;;8.90;67.70;;;;;;5052606;28;20028;-80
2021/05/06 08:55:59;;;;;;;6.63;2.50;;;9.00;68.00;;;;;;5052301;28;20064;-80
2021/05/06 08:58:25;;;;;;;8.40;1.77;;;9.00;68.40;;;;;;5052569;28;20056;-81
2021/05/06 09:00:51;;;;;;;8.07;2.00;;;9.10;67.70;;;;;;5052419;28;20492;-78
2021/05/06 09:03:16;;;;;;;9.00;2.22;;;9.10;68.20;;;;;;5052367;28;20021;-81
2021/05/06 09:06:16;;;;;;;3.00;1.40;;;9.10;69.10;;;;;;5052182;28;20029;-78
2021/05/06 09:08:44;;;;;;;8.32;2.03;;;9.10;69.20;;;;;;5052171;28;20037;-77
2021/05/06 09:11:11;;;;;;;5.05;1.70;;;9.20;68.30;;;;;;5052295;28;20496;-78
2021/05/06 09:13:37;;;;;;;5.55;1.88;;;9.10;69.50;;;;;;5051974;28;20077;-78
2021/05/06 09:16:04;;;;;;;5.35;1.50;;;9.10;68.00;;;;;;5052200;28;20021;-78
2021/05/06 09:18:33;;;;;;;5.53;1.80;;;9.20;68.30;;;;;;5052269;28;20040;-78
2021/05/06 09:20:58;;;;;;;8.57;1.40;;;9.20;68.20;;;;;;5051954;28;20037;-79
2021/05/06 09:23:24;;;;;;;4.70;1.52;;;9.20;68.90;;;;;;5052267;28;20024;-79
2021/05/06 09:25:50;;;;;;;4.40;1.75;;;9.10;69.90;;;;;;5055896;28;20025;-79
2021/05/06 09:28:17;;;;;;;7.65;1.80;;;9.00;71.50;;;;;;5055702;28;20099;-80
2021/05/06 09:30:54;;;;;;;4.05;1.58;;;9.10;71.80;;;;;;5055584;28;20485;-80
2021/05/06 09:33:38;;;;;;;6.95;2.00;;;9.10;72.30;;;;;;5055550;28;20028;-79
2021/05/06 09:36:14;;;;;;;3.95;1.55;;;9.20;70.90;;;;;;5055473;28;20029;-79
2021/05/06 09:38:43;;;;;;;4.93;1.67;;;9.00;71.00;;;;;;5055414;28;20393;-79
2021/05/06 09:41:10;;;;;;;5.32;2.00;;;9.00;71.50;;;;;;5055446;28;20064;-79
2021/05/06 09:43:41;;;;;;;7.70;2.10;;;9.10;72.00;;;;;;5055595;28;20029;-79
2021/05/06 09:46:42;;;;;;;5.05;1.70;;;9.20;72.30;;;;;;5055655;28;20028;-78
2021/05/06 09:49:07;;;;;;;6.43;1.80;;;9.20;71.80;;;;;;5054156;28;20056;-79
2021/05/06 09:51:40;;;;;;;4.15;1.88;;;9.10;71.70;;;;;;5055408;28;20407;-79
2021/05/06 09:54:12;;;;;;;8.82;1.63;;;8.80;73.30;;;;;;5055514;28;20056;-79
2021/05/06 09:56:39;;;;;;;3.30;1.63;;;8.90;74.40;;;;;;5055385;28;20092;-79
2021/05/06 09:59:06;;;;;;;4.90;1.50;;;9.00;72.70;;;;;;5055439;28;20442;-79
2021/05/06 10:01:34;;;;;;;3.55;1.38;;;9.10;72.30;;;;;;5055352;28;20025;-80
2021/05/06 10:04:20;;;;;;;8.25;2.28;;;9.20;72.90;;;;;;5055052;28;20490;-80
2021/05/06 10:07:06;;;;;;;2.97;1.58;;;9.30;72.40;;;;;;5055163;28;20078;-80
2021/05/06 10:09:32;;;;;;;5.38;1.60;;;9.40;72.60;;;;;;5054957;28;20037;-79
2021/05/06 10:12:01;;;;;;;8.05;1.88;;;9.30;70.90;;;;;;5054870;28;20029;-80
2021/05/06 10:14:28;;;;;;;6.43;1.42;;;9.40;71.00;;;;;;5055213;28;20486;-79
2021/05/06 10:16:53;;;;;;;4.60;1.70;;;9.40;71.00;;;;;;5055134;28;20033;-79
2021/05/06 10:19:19;;;;;;;7.88;1.70;;;9.40;71.80;;;;;;5054805;28;20036;-80
2021/05/06 10:21:46;;;;;;;5.30;1.40;;;9.50;71.40;;;;;;5054747;28;20162;-79
2021/05/06 10:24:15;;;;;;;3.33;1.63;;;9.60;71.00;;;;;;5054753;28;20111;-79
2021/05/06 10:26:41;;;;;;;7.75;1.65;;;9.40;71.10;;;;;;5054339;28;20032;-79
2021/05/06 10:29:07;;;;;;;5.93;1.40;;;9.40;71.30;;;;;;5056100;28;20382;-79
2021/05/06 10:31:37;;;;;;;5.03;2.25;;;9.40;72.10;;;;;;5053921;28;20090;-79
2021/05/06 10:34:03;;;;;;;5.18;1.92;;;9.40;73.30;;;;;;5054510;28;20029;-78
2021/05/06 10:36:29;;;;;;;2.95;1.35;;;9.40;72.20;;;;;;5054489;28;20070;-76
2021/05/06 10:38:55;;;;;;;3.90;1.58;;;9.50;71.60;;;;;;5054482;28;20159;-77
2021/05/06 10:41:28;;;;;;;6.45;1.90;;;9.50;72.80;;;;;;5053887;28;20167;-76
2021/05/06 10:43:58;;;;;;;7.80;2.28;;;9.70;72.00;;;;;;5054093;28;20492;-78
2021/05/06 10:46:46;;;;;;;4.72;1.58;;;9.80;71.70;;;;;;5053395;28;20037;-75
2021/05/06 10:49:12;;;;;;;2.80;1.60;;;9.90;71.50;;;;;;5051859;28;20017;-77
2021/05/06 10:51:44;;;;;;;6.55;1.75;;;10.00;72.10;;;;;;5054154;28;20074;-76
2021/05/06 10:54:28;;;;;;;4.13;1.70;;;10.10;70.60;;;;;;5054378;28;20400;-78
2021/05/06 10:56:55;;;;;;;4.75;1.45;;;10.00;69.60;;;;;;5054185;28;20025;-76
2021/05/06 10:59:36;;;;;;;5.63;1.73;;;9.90;70.10;;;;;;5054010;28;20470;-78
2021/05/06 11:02:04;;;;;;;3.35;1.20;;;10.00;70.40;;;;;;5054062;28;20021;-77
2021/05/06 11:04:37;;;;;;;3.70;1.23;;;10.20;70.50;;;;;;5054174;28;20135;-78
2021/05/06 11:07:22;;;;;;;5.00;1.60;;;10.00;66.70;;;;;;5053954;28;20528;-81
2021/05/06 11:09:53;;;;;;;3.05;0.88;;;9.80;68.60;;;;;;5053773;28;20477;-78
2021/05/06 11:12:46;;;;;;;1.63;1.20;;;9.60;69.80;;;;;;5053809;28;20421;-76
2021/05/06 11:15:18;;;;;;;3.83;1.20;;;9.70;68.80;;;;;;5054490;28;20482;-76
2021/05/06 11:17:44;;;;;;;1.85;0.90;;;9.80;69.00;;;;;;5053734;28;20496;-77
2021/05/06 11:20:09;;;;;;;1.92;1.05;;;9.90;69.80;;;;;;5053776;28;20021;-78
2021/05/06 11:22:45;;;;;;;5.65;1.27;;;10.10;67.90;;;;;;5053741;28;20378;-78
2021/05/06 11:25:50;;;;;;;3.08;0.93;;;10.10;67.70;;;;;;5053840;28;20024;-78
2021/05/06 11:28:18;;;;;;;2.70;1.23;;;10.00;68.40;;;;;;5053805;28;20036;-79
2021/05/06 11:30:44;;;;;;;1.63;1.02;;;10.10;68.10;;;;;;5053602;28;20032;-79
2021/05/06 11:33:30;;;;;;;1.58;1.10;;;10.20;68.50;;;;;;5053648;28;20028;-80
2021/05/06 11:36:11;;;;;;;2.30;1.10;;;10.40;67.60;;;;;;5053277;28;20029;-80
2021/05/06 11:38:37;;;;;;;1.30;0.90;;;10.50;67.70;;;;;;5053547;28;20040;-77
2021/05/06 11:41:13;;;;;;;1.95;0.90;;;10.40;66.10;;;;;;5053214;28;20052;-80
2021/05/06 11:44:08;;;;;;;2.60;1.02;;;10.30;65.40;;;;;;5053380;28;20033;-80
2021/05/06 11:46:38;;;;;;;3.17;1.10;;;9.90;67.80;;;;;;5055990;28;20482;-79
2021/05/06 11:49:06;;;;;;;2.42;1.13;;;9.80;68.30;;;;;;5053085;28;20025;-80
2021/05/06 11:51:37;;;;;;;2.47;1.08;;;9.80;68.50;;;;;;5053173;28;20029;-79
2021/05/06 11:54:20;;;;;;;3.95;0.98;;;9.70;69.50;;;;;;5053104;28;20032;-76
2021/05/06 11:56:54;;;;;;;5.80;1.10;;;9.60;69.90;;;;;;5051862;28;20032;-79
2021/05/06 11:59:23;;;;;;;2.30;0.93;;;9.60;70.30;;;;;;5053132;28;20036;-78
2021/05/06 12:01:50;;;;;;;1.70;0.80;;;9.60;70.30;;;;;;5054140;28;20555;-81
2021/05/06 12:04:26;;;;;;;6.20;1.40;;;9.70;69.60;;;;;;5051830;28;20079;-81
2021/05/06 12:06:53;;;;;;;8.50;1.48;;;9.60;70.60;;;;;;5053159;28;20025;-78
2021/05/06 12:09:28;;;;;;;1.67;0.60;;;9.60;71.40;;;;;;5052894;28;20056;-80
2021/05/06 12:11:54;;;;;;;3.60;0.90;;;9.40;70.20;;;;;;5053189;28;20028;-79
2021/05/06 12:14:30;;;;;;;4.40;1.13;;;9.40;71.00;;;;;;5052678;28;20025;-78
2021/05/06 12:16:56;;;;;;;2.80;0.70;;;9.30;72.20;;;;;;5052559;28;20424;-78
2021/05/06 12:19:22;;;;;;;1.52;0.98;;;9.10;71.70;;;;;;5052642;28;20025;-79
2021/05/06 12:21:51;;;;;;;1.67;1.00;;;9.10;72.50;;;;;;5052859;28;20025;-79
2021/05/06 12:24:36;;;;;;;2.15;0.93;;;9.10;73.70;;;;;;5052895;28;20021;-79
2021/05/06 12:27:24;;;;;;;3.15;0.80;;;9.00;73.70;;;;;;5052737;28;20103;-79
2021/05/06 12:29:56;;;;;;;1.52;0.75;;;8.80;74.90;;;;;;5052497;28;20037;-79
2021/05/06 12:32:26;;;;;;;1.27;0.57;;;8.90;75.40;;;;;;5052782;28;20025;-79
2021/05/06 12:34:56;;;;;;;2.45;0.88;;;8.80;74.50;;;;;;5052774;28;20025;-79
2021/05/06 12:37:26;;;;;;;2.65;1.30;;;8.80;77.00;;;;;;5052661;28;20021;-79
2021/05/06 12:39:52;;;;;;;1.02;0.68;;;8.60;76.40;;;;;;5052443;28;20369;-78
2021/05/06 12:42:32;;;;;;;2.72;0.60;;;8.50;76.30;;;;;;5052609;28;20488;-77
2021/05/06 12:44:59;;;;;;;3.72;0.60;;;8.40;77.40;;;;;;5052537;28;20448;-80
2021/05/06 12:47:50;;;;;;;3.92;0.80;;;8.30;76.70;;;;;;5052612;28;20375;-79
2021/05/06 12:50:21;;;;;;;2.17;0.52;;;8.20;78.00;;;;;;5052574;28;20048;-79
2021/05/06 12:52:51;;;;;;;4.63;0.60;;;8.20;78.20;;;;;;5052733;28;20037;-79
2021/05/06 12:55:25;;;;;;;0.38;0.38;;;8.20;79.10;;;;;;5052394;28;20108;-79
2021/05/06 12:58:07;;;;;;;4.05;0.47;;;8.10;78.80;;;;;;5053592;28;20078;-79
2021/05/06 13:00:34;;;;;;;2.42;0.70;;;8.00;78.20;;;;;;5056521;28;20074;-79
2021/05/06 13:03:08;;;;;;;1.05;0.30;;;8.00;80.00;;;;;;5056560;28;20025;-79
2021/05/06 13:05:36;;;;;;;0.73;0.30;;;8.00;79.00;;;;;;5056782;28;20013;-79
2021/05/06 13:08:04;;;;;;;1.00;0.40;;;7.90;79.50;;;;;;5056472;28;20025;-79
2021/05/06 13:10:37;;;;;;;1.05;0.40;;;7.90;79.50;;;;;;5056323;28;20055;-80
2021/05/06 13:13:04;;;;;;;8.32;0.60;;;7.90;80.10;;;;;;5056450;28;20021;-80
2021/05/06 13:16:02;;;;;;;1.45;0.60;;;7.90;80.80;;;;;;5056406;28;20021;-77
2021/05/06 13:18:28;;;;;;;1.40;0.45;;;7.90;79.90;;;;;;5056506;28;20104;-80
2021/05/06 13:20:53;;;;;;;0.50;0.43;;;7.80;79.70;;;;;;5056279;28;20111;-80
2021/05/06 13:23:29;;;;;;;0.40;0.30;;;7.80;80.80;;;;;;5056352;28;20047;-80
2021/05/06 13:26:01;;;;;;;3.80;0.65;;;7.80;81.70;;;;;;5054793;28;20043;-80
2021/05/06 13:28:32;;;;;;;2.70;0.60;;;7.80;81.40;;;;;;5056084;28;20147;-80
2021/05/06 13:31:17;;;;;;;0.52;0.25;;;7.80;80.90;;;;;;5055954;28;20033;-79
2021/05/06 13:33:44;;;;;;;1.98;0.30;;;7.70;82.40;;;;;;5055142;28;20124;-77
2021/05/06 13:36:13;;;;;;;4.93;0.77;;;7.70;80.90;;;;;;5055716;28;20021;-78
2021/05/06 13:38:54;;;;;;;1.00;0.30;;;7.70;82.40;;;;;;5055934;28;20515;-78
2021/05/06 13:41:30;;;;;;;0.70;0.40;;;7.70;82.20;;;;;;5055830;28;20044;-78
2021/05/06 13:43:58;;;;;;;1.58;0.20;;;7.70;81.40;;;;;;5055784;28;20017;-78
2021/05/06 13:46:24;;;;;;;4.90;0.60;;;7.80;81.50;;;;;;5055921;28;20017;-80
2021/05/06 13:48:51;;;;;;;1.58;0.40;;;7.80;82.00;;;;;;5055540;28;20048;-79
2021/05/06 13:51:18;;;;;;;0.57;0.40;;;7.90;81.40;;;;;;5055860;28;20032;-78
2021/05/06 13:53:45;;;;;;;1.88;0.85;;;7.90;82.60;;;;;;5055720;28;20363;-78
2021/05/06 13:56:11;;;;;;;4.85;0.82;;;8.00;82.50;;;;;;5055685;28;20025;-80
2021/05/06 13:58:37;;;;;;;4.82;0.40;;;8.10;82.50;;;;;;5055667;28;20025;-78
2021/05/06 14:01:05;;;;;;;1.20;0.70;;;8.10;82.50;;;;;;5055477;28;20033;-78
2021/05/06 14:03:31;;;;;;;0.32;0.25;;;8.10;82.80;;;;;;5055655;28;20025;-77
2021/05/06 14:05:56;;;;;;;0.60;0.30;;;8.20;82.50;;;;;;5055355;28;20029;-77
2021/05/06 14:08:22;;;;;;;0.50;0.30;;;8.30;82.80;;;;;;5055219;28;20021;-76
2021/05/06 14:10:48;;;;;;;1.75;0.73;;;8.20;82.20;;;;;;5054541;28;20363;-77
2021/05/06 14:13:16;;;;;;;0.40;0.30;;;8.30;82.50;;;;;;5055199;28;20465;-76
2021/05/06 14:15:41;;;;;;;1.48;0.40;;;8.20;81.70;;;;;;5055122;28;20036;-77
2021/05/06 14:18:07;;;;;;;1.77;0.20;;;8.20;81.90;;;;;;5055257;28;20017;-78
2021/05/06 14:20:33;;;;;;;0.30;0.30;;;8.10;80.60;;;;;;5055089;28;20112;-75
2021/05/06 14:22:59;;;;;;;1.00;0.20;;;8.10;80.50;;;;;;5055114;28;20047;-76
2021/05/06 14:25:24;;;;;;;1.40;0.43;;;8.10;80.40;;;;;;5055800;28;20021;-76
2021/05/06 14:27:51;;;;;;;0.73;0.20;;;8.10;80.10;;;;;;5054931;28;20021;-76
2021/05/06 14:30:17;;;;;;;2.38;0.63;;;8.10;81.10;;;;;;5054785;28;20060;-76
2021/05/06 14:32:42;;;;;;;0.60;0.40;;;8.00;80.40;;;;;;5054454;28;20474;-76
2021/05/06 14:35:08;;;;;;;1.20;0.55;;;8.00;82.00;;;;;;5054954;28;20032;-77
2021/05/06 14:37:33;;;;;;;1.38;0.60;;;8.10;82.70;;;;;;5054877;28;20025;-76
2021/05/06 14:39:59;;;;;;;0.32;0.20;;;8.00;82.20;;;;;;5054546;28;20059;-78
2021/05/06 14:42:25;;;;;;;0.30;0.20;;;8.10;82.20;;;;;;5055169;28;20017;-78
2021/05/06 14:44:51;;;;;;;0.77;0.38;;;8.10;81.10;;;;;;5054708;28;20029;-77
2021/05/06 14:47:17;;;;;;;1.05;0.30;;;8.20;81.70;;;;;;5054600;28;20029;-78
2021/05/06 14:49:42;;;;;;;1.00;0.30;;;8.20;81.00;;;;;;5054372;28;20037;-77
2021/05/06 14:52:08;;;;;;;1.25;0.30;;;8.20;80.40;;;;;;5052952;28;20072;-76
2021/05/06 14:54:34;;;;;;;0.55;0.35;;;8.20;80.90;;;;;;5054352;28;20024;-77
2021/05/06 14:56:59;;;;;;;2.97;1.40;;;8.20;82.20;;;;;;5054407;28;20060;-77
2021/05/06 14:59:25;;;;;;;1.23;1.10;;;8.20;82.10;;;;;;5054458;28;20474;-78
2021/05/06 15:01:51;;;;;;;1.58;0.40;;;8.30;82.40;;;;;;5054365;28;20497;-79
2021/05/06 15:04:17;;;;;;;0.90;0.30;;;8.30;82.50;;;;;;5054063;28;20028;-77
2021/05/06 15:06:43;;;;;;;1.45;0.50;;;8.40;81.90;;;;;;5054144;28;20021;-77
2021/05/06 15:09:08;;;;;;;1.25;0.20;;;8.40;81.80;;;;;;5054439;28;20040;-76
2021/05/06 15:11:34;;;;;;;1.13;0.50;;;8.40;81.50;;;;;;5054288;28;20029;-77
2021/05/06 15:14:00;;;;;;;0.30;0.30;;;8.40;82.70;;;;;;5054244;28;20025;-77
2021/05/06 15:16:26;;;;;;;1.48;0.40;;;8.50;82.70;;;;;;5054051;28;20025;-77
2021/05/06 15:18:52;;;;;;;1.20;0.30;;;8.40;83.50;;;;;;5054678;28;20178;-77
2021/05/06 15:21:18;;;;;;;2.08;0.55;;;8.40;82.80;;;;;;5058895;28;20409;-77
2021/05/06 15:23:43;;;;;;;0.30;0.30;;;8.40;82.80;;;;;;5054415;28;20029;-77
2021/05/06 15:26:09;;;;;;;0.43;0.30;;;8.40;83.10;;;;;;5054044;28;20021;-77
2021/05/06 15:28:35;;;;;;;0.98;0.40;;;8.40;83.00;;;;;;5056140;28;20045;-77
2021/05/06 15:31:01;;;;;;;0.95;0.40;;;8.50;82.70;;;;;;5065583;28;20029;-77
2021/05/06 15:33:26;;;;;;;1.80;0.40;;;8.50;82.60;;;;;;5056016;28;20017;-77
2021/05/06 15:35:52;;;;;;;1.05;0.52;;;8.50;82.30;;;;;;5054958;28;20025;-78
2021/05/06 15:38:19;;;;;;;0.90;0.40;;;8.60;82.50;;;;;;5056247;28;20021;-77
2021/05/06 15:40:47;;;;;;;0.13;0.13;;;8.60;83.10;;;;;;5054748;28;20041;-75
2021/05/06 15:43:12;;;;;;;0.47;0.32;;;8.60;81.90;;;;;;5058120;28;20029;-76
2021/05/06 15:45:41;;;;;;;1.17;0.20;;;8.60;82.90;;;;;;5056368;28;20028;-77
2021/05/06 15:48:10;;;;;;;1.23;0.40;;;8.60;83.60;;;;;;5056024;28;20179;-77
2021/05/06 15:50:37;;;;;;;1.88;0.60;;;8.60;83.40;;;;;;5056295;28;20115;-76
2021/05/06 15:53:03;;;;;;;2.83;0.50;;;8.70;83.20;;;;;;5056444;28;20029;-77
2021/05/06 15:55:30;;;;;;;0.90;0.43;;;8.70;83.00;;;;;;5055273;28;20366;-76
2021/05/06 15:57:56;;;;;;;0.30;0.30;;;8.60;83.70;;;;;;5056062;28;20170;-77
2021/05/06 16:00:24;;;;;;;0.73;0.20;;;8.70;83.20;;;;;;5055782;28;20021;-77
2021/05/06 16:02:50;;;;;;;0.60;0.20;;;8.70;83.30;;;;;;5056355;28;20025;-77
2021/05/06 16:05:23;;;;;;;0.38;0.22;;;8.80;83.00;;;;;;5056121;28;20426;-77
2021/05/06 16:07:50;;;;;;;0.55;0.50;;;8.90;83.00;;;;;;5054831;28;20512;-77
2021/05/06 16:10:15;;;;;;;0.55;0.32;;;8.90;82.90;;;;;;5057809;28;20033;-76
2021/05/06 16:12:41;;;;;;;1.05;0.47;;;8.90;83.50;;;;;;5056288;28;20089;-77
2021/05/06 16:15:07;;;;;;;0.93;0.30;;;9.00;83.30;;;;;;5055460;28;20035;-77
2021/05/06 16:17:33;;;;;;;0.10;0.10;;;8.90;83.70;;;;;;5055501;28;20029;-77
2021/05/06 16:19:59;;;;;;;1.02;0.20;;;8.90;83.50;;;;;;5055619;28;20044;-77